Time;durP1;ratioP1;P1;durP2;ratioP2;P2;SDS_P1;SDS_P2;PMS_P1;PMS_P2;Temp;Humidity;BMP_temperature;BMP_pressure;BME280_temperature;BME280_humidity;BME280_pressure;Samples;Min_cycle;Max_cycle;Signal;HPM_P1;HPM_P2
2022/07/11 00:00:14;;;;;;;1.45;1.35;;;11.30;99.90;;;;;;5069000;28;20055;-70
2022/07/11 00:02:40;;;;;;;2.20;1.73;;;11.20;99.90;;;;;;5072595;28;20130;-70
2022/07/11 00:05:09;;;;;;;3.38;2.22;;;11.20;99.90;;;;;;5072469;28;20025;-70
2022/07/11 00:07:35;;;;;;;3.08;1.90;;;11.20;99.90;;;;;;5070960;28;20024;-75
2022/07/11 00:10:02;;;;;;;4.28;1.55;;;11.10;99.90;;;;;;5052526;28;20444;-70
2022/07/11 00:12:28;;;;;;;3.72;2.20;;;11.10;99.90;;;;;;5053805;28;20383;-70
2022/07/11 00:14:54;;;;;;;2.38;2.10;;;10.90;99.90;;;;;;5053551;28;20078;-75
2022/07/11 00:17:20;;;;;;;3.35;2.33;;;10.90;99.90;;;;;;5053617;28;20021;-70
2022/07/11 00:19:48;;;;;;;5.03;1.75;;;10.90;99.90;;;;;;5053621;28;20031;-75
2022/07/11 00:22:14;;;;;;;3.28;2.10;;;10.90;99.90;;;;;;5052249;28;20432;-70
2022/07/11 00:24:39;;;;;;;5.07;2.15;;;10.90;99.90;;;;;;5053406;28;20021;-75
2022/07/11 00:27:05;;;;;;;3.25;1.80;;;10.80;99.90;;;;;;5052609;28;20021;-70
2022/07/11 00:29:31;;;;;;;4.57;2.03;;;10.70;99.90;;;;;;5053418;28;20028;-74
2022/07/11 00:31:58;;;;;;;2.28;2.08;;;10.70;99.90;;;;;;5051669;28;20060;-75
2022/07/11 00:34:24;;;;;;;3.22;2.03;;;10.70;99.90;;;;;;5053434;28;20029;-70
2022/07/11 00:36:50;;;;;;;2.20;1.98;;;10.60;99.90;;;;;;5053386;28;20067;-74
2022/07/11 00:39:16;;;;;;;5.65;2.30;;;10.60;99.90;;;;;;5053165;28;20367;-75
2022/07/11 00:41:42;;;;;;;2.42;2.22;;;10.60;99.90;;;;;;5053331;28;20478;-74
2022/07/11 00:44:07;;;;;;;2.95;2.60;;;10.70;99.90;;;;;;5053110;28;20025;-69
2022/07/11 00:46:33;;;;;;;3.15;2.40;;;10.60;99.90;;;;;;5053756;28;20029;-69
2022/07/11 00:48:59;;;;;;;3.13;2.05;;;10.60;99.90;;;;;;5051780;28;20021;-73
2022/07/11 00:51:26;;;;;;;2.63;2.00;;;10.50;99.90;;;;;;5053280;28;20359;-70
2022/07/11 00:53:54;;;;;;;4.07;2.00;;;10.50;99.90;;;;;;5053041;28;20048;-74
2022/07/11 00:56:22;;;;;;;3.47;2.08;;;10.50;99.90;;;;;;5053134;28;20028;-74
2022/07/11 00:58:48;;;;;;;2.78;1.80;;;10.50;99.90;;;;;;5056790;28;20098;-70
2022/07/11 01:01:14;;;;;;;4.70;1.90;;;10.40;99.90;;;;;;5073065;28;20020;-70
2022/07/11 01:03:41;;;;;;;4.07;1.90;;;10.40;99.90;;;;;;5073125;28;20028;-70
2022/07/11 01:06:07;;;;;;;2.50;2.00;;;10.40;99.90;;;;;;5071742;28;20013;-70
2022/07/11 01:08:35;;;;;;;1.60;1.50;;;10.40;99.90;;;;;;5061629;28;20027;-74
2022/07/11 01:11:05;;;;;;;5.35;1.85;;;10.40;99.90;;;;;;5051644;28;20025;-74
2022/07/11 01:13:31;;;;;;;3.30;1.90;;;10.40;99.90;;;;;;5052885;28;20115;-75
2022/07/11 01:16:26;;;;;;;4.82;1.85;;;10.40;99.90;;;;;;5052843;28;20051;-75
2022/07/11 01:18:54;;;;;;;2.17;1.80;;;10.50;99.90;;;;;;5052598;28;20037;-75
2022/07/11 01:21:30;;;;;;;2.95;1.80;;;10.50;99.90;;;;;;5052737;28;20412;-70
2022/07/11 01:23:58;;;;;;;1.77;1.63;;;10.50;99.90;;;;;;5051681;28;20471;-75
2022/07/11 01:26:25;;;;;;;2.17;1.98;;;10.50;99.90;;;;;;5052861;28;20017;-74
2022/07/11 01:28:51;;;;;;;4.55;2.08;;;10.50;99.90;;;;;;5052744;28;20502;-75
2022/07/11 01:31:19;;;;;;;1.77;1.67;;;10.50;99.90;;;;;;5051251;28;20041;-69
2022/07/11 01:33:45;;;;;;;2.65;2.03;;;10.50;99.90;;;;;;5052768;28;20068;-69
2022/07/11 01:36:12;;;;;;;3.00;1.67;;;10.50;99.90;;;;;;5051308;28;20036;-75
2022/07/11 01:38:39;;;;;;;2.33;1.83;;;10.50;99.90;;;;;;5053463;28;20052;-69
2022/07/11 01:41:05;;;;;;;4.35;1.80;;;10.50;99.90;;;;;;5056569;28;20060;-74
2022/07/11 01:43:31;;;;;;;2.00;1.70;;;10.50;99.90;;;;;;5056577;28;20029;-69
2022/07/11 01:45:57;;;;;;;2.65;1.88;;;10.60;99.90;;;;;;5056399;28;20021;-75
2022/07/11 01:48:22;;;;;;;3.80;2.10;;;10.60;99.90;;;;;;5055326;28;20032;-70
2022/07/11 01:50:49;;;;;;;2.20;1.75;;;10.60;99.90;;;;;;5056310;28;20398;-70
2022/07/11 01:53:15;;;;;;;2.15;1.70;;;10.60;99.90;;;;;;5056303;28;20044;-75
2022/07/11 01:55:41;;;;;;;1.95;1.75;;;10.70;99.90;;;;;;5056197;28;20017;-69
2022/07/11 01:58:07;;;;;;;2.58;1.73;;;10.70;99.90;;;;;;5056443;28;20068;-75
2022/07/11 02:00:33;;;;;;;3.88;2.00;;;10.70;99.90;;;;;;5074646;28;20037;-75
2022/07/11 02:02:59;;;;;;;2.08;1.80;;;10.70;99.90;;;;;;5074845;28;20029;-71
2022/07/11 02:05:24;;;;;;;3.00;2.00;;;10.70;99.90;;;;;;5076047;28;20524;-74
2022/07/11 02:10:34;;;;;;;4.28;2.22;;;10.80;99.90;;;;;;5056172;28;20039;-70
2022/07/11 02:13:00;;;;;;;3.03;2.03;;;10.80;99.90;;;;;;5055897;28;20417;-70
2022/07/11 02:15:27;;;;;;;2.47;1.77;;;10.90;99.90;;;;;;5054582;28;20033;-69
2022/07/11 02:17:53;;;;;;;2.40;1.95;;;10.90;99.90;;;;;;5055916;28;20432;-70
2022/07/11 02:20:20;;;;;;;5.20;2.55;;;11.00;99.90;;;;;;5055837;28;20021;-74
2022/07/11 02:22:46;;;;;;;2.95;1.92;;;11.00;99.90;;;;;;5055863;28;20158;-71
2022/07/11 02:25:12;;;;;;;2.38;1.90;;;11.10;99.90;;;;;;5055845;28;20125;-74
2022/07/11 02:27:37;;;;;;;3.88;2.15;;;11.10;99.90;;;;;;5055706;28;20028;-70
2022/07/11 02:30:04;;;;;;;4.90;2.00;;;11.10;99.90;;;;;;5054372;28;20036;-74
2022/07/11 02:32:29;;;;;;;2.08;1.90;;;11.10;99.90;;;;;;5055343;28;20138;-70
2022/07/11 02:34:55;;;;;;;2.05;1.70;;;11.10;99.90;;;;;;5055490;28;20065;-74
2022/07/11 02:37:20;;;;;;;2.38;2.17;;;11.10;99.90;;;;;;5055604;28;20136;-74
2022/07/11 02:39:47;;;;;;;2.20;1.98;;;11.10;99.90;;;;;;5055597;28;20040;-69
2022/07/11 02:42:12;;;;;;;2.60;2.40;;;11.10;99.90;;;;;;5055381;28;20036;-75
2022/07/11 02:44:38;;;;;;;3.08;2.60;;;11.10;99.90;;;;;;5055402;28;20028;-69
2022/07/11 02:47:04;;;;;;;2.72;2.42;;;11.10;99.90;;;;;;5055367;28;20044;-75
2022/07/11 02:49:30;;;;;;;2.08;1.90;;;11.10;99.90;;;;;;5054395;28;20032;-70
2022/07/11 02:51:56;;;;;;;2.67;2.10;;;11.20;99.90;;;;;;5055187;28;20052;-74
2022/07/11 02:54:22;;;;;;;2.35;2.03;;;11.20;99.90;;;;;;5055315;28;20064;-69
2022/07/11 02:56:48;;;;;;;3.28;2.00;;;11.20;99.90;;;;;;5055087;28;20024;-70
2022/07/11 02:59:14;;;;;;;2.88;2.20;;;11.20;99.90;;;;;;5061981;28;20055;-74
2022/07/11 03:01:43;;;;;;;2.15;1.85;;;11.20;99.90;;;;;;5073305;28;20052;-75
2022/07/11 03:04:12;;;;;;;4.97;2.55;;;11.20;99.90;;;;;;5074878;28;20035;-74
2022/07/11 03:06:38;;;;;;;5.45;2.35;;;11.10;99.90;;;;;;5058805;28;20021;-75
2022/07/11 03:09:05;;;;;;;4.65;2.08;;;11.20;99.90;;;;;;5054659;28;20371;-75
2022/07/11 03:11:31;;;;;;;2.92;2.30;;;11.10;99.90;;;;;;5053306;28;20025;-75
2022/07/11 03:13:57;;;;;;;6.43;2.33;;;11.10;99.90;;;;;;5053344;28;20505;-76
2022/07/11 03:16:23;;;;;;;2.97;2.58;;;11.10;99.90;;;;;;5053359;28;20032;-75
2022/07/11 03:18:49;;;;;;;4.10;2.50;;;11.00;99.90;;;;;;5053218;28;20033;-75
2022/07/11 03:21:15;;;;;;;2.67;2.38;;;11.00;99.90;;;;;;5054332;28;20025;-76
2022/07/11 03:23:41;;;;;;;6.35;2.63;;;11.00;99.90;;;;;;5053491;28;20025;-75
2022/07/11 03:26:07;;;;;;;3.85;2.60;;;11.00;99.90;;;;;;5052463;28;20021;-75
2022/07/11 03:28:32;;;;;;;5.82;2.75;;;11.00;99.90;;;;;;5052513;28;20083;-75
2022/07/11 03:30:58;;;;;;;2.58;2.35;;;11.00;99.90;;;;;;5052248;28;20092;-75
2022/07/11 03:33:24;;;;;;;3.78;2.65;;;11.00;99.90;;;;;;5052715;28;20037;-75
2022/07/11 03:35:50;;;;;;;5.75;3.25;;;11.00;99.90;;;;;;5052778;28;20394;-75
2022/07/11 03:38:19;;;;;;;5.63;3.28;;;11.10;99.90;;;;;;5052245;28;20480;-75
2022/07/11 03:40:45;;;;;;;6.20;3.20;;;11.10;99.90;;;;;;5050675;28;20060;-75
2022/07/11 03:43:11;;;;;;;5.85;3.03;;;11.10;99.90;;;;;;5050724;28;20119;-75
2022/07/11 03:45:37;;;;;;;5.20;2.85;;;11.10;99.90;;;;;;5050762;28;20107;-75
2022/07/11 03:48:04;;;;;;;4.57;2.90;;;11.10;99.90;;;;;;5050639;28;20040;-75
2022/07/11 03:50:29;;;;;;;7.57;3.08;;;11.10;99.90;;;;;;5051853;28;20040;-75
2022/07/11 03:52:56;;;;;;;5.45;2.88;;;11.20;99.90;;;;;;5052951;28;20104;-75
2022/07/11 03:55:22;;;;;;;5.05;2.65;;;11.20;99.90;;;;;;5053933;28;20032;-75
2022/07/11 03:57:48;;;;;;;3.60;2.78;;;11.30;99.90;;;;;;5053821;28;20406;-75
2022/07/11 04:00:14;;;;;;;3.58;2.78;;;11.30;99.90;;;;;;5070336;28;20431;-75
2022/07/11 04:02:40;;;;;;;5.22;2.95;;;11.30;99.90;;;;;;5073301;28;20453;-75
2022/07/11 04:05:06;;;;;;;5.93;2.97;;;11.30;99.90;;;;;;5073662;28;20100;-75
2022/07/11 04:07:32;;;;;;;5.07;3.10;;;11.40;99.90;;;;;;5069678;28;20051;-75
2022/07/11 04:09:58;;;;;;;6.15;2.95;;;11.40;99.90;;;;;;5052765;28;20728;-75
2022/07/11 04:12:23;;;;;;;7.90;3.47;;;11.40;99.90;;;;;;5053578;28;20044;-75
2022/07/11 04:14:49;;;;;;;3.97;2.72;;;11.40;99.90;;;;;;5053336;28;20060;-75
2022/07/11 04:17:16;;;;;;;6.10;3.03;;;11.50;99.90;;;;;;5053497;28;20493;-75
2022/07/11 04:19:45;;;;;;;7.65;4.10;;;11.50;99.90;;;;;;5053458;28;20040;-75
2022/07/11 04:22:11;;;;;;;3.25;2.95;;;11.60;99.90;;;;;;5052111;28;20017;-75
2022/07/11 04:24:37;;;;;;;8.45;3.88;;;11.60;99.90;;;;;;5052014;28;20490;-75
2022/07/11 04:27:03;;;;;;;7.55;3.42;;;11.60;99.90;;;;;;5053265;28;20025;-75
2022/07/11 04:29:29;;;;;;;4.45;3.10;;;11.60;99.90;;;;;;5053266;28;20036;-75
2022/07/11 04:31:54;;;;;;;4.22;3.30;;;11.60;99.90;;;;;;5053021;28;20045;-75
2022/07/11 04:34:20;;;;;;;6.65;3.10;;;11.70;99.90;;;;;;5053128;28;20041;-75
2022/07/11 04:36:46;;;;;;;7.57;3.78;;;11.70;99.90;;;;;;5053128;28;20437;-75
2022/07/11 04:39:12;;;;;;;5.05;3.25;;;11.80;99.90;;;;;;5051809;28;20021;-75
2022/07/11 04:41:38;;;;;;;6.65;3.58;;;11.90;99.90;;;;;;5053180;28;20096;-75
2022/07/11 04:44:04;;;;;;;4.10;3.28;;;12.00;99.90;;;;;;5051726;28;20040;-75
2022/07/11 04:46:31;;;;;;;4.30;3.47;;;12.00;99.90;;;;;;5053075;28;20010;-75
2022/07/11 04:48:57;;;;;;;5.47;3.35;;;12.20;99.90;;;;;;5052901;28;20078;-75
2022/07/11 04:51:24;;;;;;;5.13;3.35;;;12.20;99.90;;;;;;5053120;28;20029;-75
2022/07/11 04:53:50;;;;;;;4.00;3.30;;;12.20;99.90;;;;;;5052739;28;20036;-75
2022/07/11 04:56:15;;;;;;;8.43;3.15;;;12.30;99.90;;;;;;5053017;28;20430;-75
2022/07/11 04:58:41;;;;;;;4.45;3.08;;;12.20;99.90;;;;;;5054003;28;20052;-75
2022/07/11 05:01:08;;;;;;;9.00;3.97;;;12.20;99.90;;;;;;5052699;28;20045;-75
2022/07/11 05:03:34;;;;;;;5.38;3.33;;;12.20;99.90;;;;;;5052838;28;20026;-75
2022/07/11 05:06:00;;;;;;;6.55;3.65;;;12.20;99.90;;;;;;5052791;28;20044;-75
2022/07/11 05:08:27;;;;;;;5.72;4.25;;;12.20;99.90;;;;;;5052714;28;20017;-75
2022/07/11 05:10:53;;;;;;;4.90;3.42;;;12.20;99.90;;;;;;5052630;28;20036;-75
2022/07/11 05:13:18;;;;;;;6.60;3.70;;;12.10;99.90;;;;;;5054177;28;20037;-75
2022/07/11 05:15:44;;;;;;;4.85;3.22;;;12.10;99.90;;;;;;5056950;28;20474;-76
2022/07/11 05:18:10;;;;;;;6.07;4.03;;;12.10;99.90;;;;;;5056827;28;20023;-76
2022/07/11 05:20:37;;;;;;;7.40;3.72;;;12.20;99.90;;;;;;5056696;28;20029;-76
2022/07/11 05:23:02;;;;;;;6.05;3.45;;;12.20;99.90;;;;;;5056748;28;20017;-75
2022/07/11 05:25:28;;;;;;;8.07;4.25;;;12.20;99.90;;;;;;5056783;28;20059;-75
2022/07/11 05:27:54;;;;;;;8.10;3.50;;;12.30;99.90;;;;;;5056755;28;20017;-75
2022/07/11 05:30:20;;;;;;;5.38;3.30;;;12.20;99.90;;;;;;5056684;28;20021;-75
2022/07/11 05:32:46;;;;;;;9.38;4.00;;;12.30;99.90;;;;;;5055238;28;20379;-76
2022/07/11 05:35:11;;;;;;;4.88;3.25;;;12.30;99.90;;;;;;5054806;28;20048;-75
2022/07/11 05:37:37;;;;;;;5.82;3.05;;;12.30;99.90;;;;;;5055888;28;20467;-75
2022/07/11 05:40:03;;;;;;;6.00;3.80;;;12.30;99.90;;;;;;5054369;28;20082;-76
2022/07/11 05:42:31;;;;;;;8.80;3.10;;;12.40;99.90;;;;;;5056579;28;20024;-76
2022/07/11 05:44:57;;;;;;;5.07;3.28;;;12.40;99.90;;;;;;5055048;28;20032;-76
2022/07/11 05:47:23;;;;;;;5.47;3.53;;;12.50;99.90;;;;;;5053890;28;20025;-76
2022/07/11 05:49:48;;;;;;;5.35;2.90;;;12.50;99.90;;;;;;5055712;28;20036;-75
2022/07/11 05:52:14;;;;;;;3.35;2.53;;;12.60;99.90;;;;;;5056298;28;20096;-76
2022/07/11 05:54:40;;;;;;;7.03;3.72;;;12.60;99.90;;;;;;5055895;28;20029;-75
2022/07/11 05:57:06;;;;;;;5.35;3.22;;;12.80;99.90;;;;;;5056211;28;20466;-75
2022/07/11 05:59:31;;;;;;;5.40;2.83;;;12.80;99.90;;;;;;5055987;28;20029;-75
2022/07/11 06:01:57;;;;;;;5.13;3.30;;;12.80;99.90;;;;;;5056034;28;20028;-75
2022/07/11 06:04:23;;;;;;;5.40;2.80;;;12.90;99.90;;;;;;5055951;28;20037;-75
2022/07/11 06:06:48;;;;;;;7.40;3.30;;;13.00;99.90;;;;;;5055968;28;20075;-75
2022/07/11 06:09:14;;;;;;;8.07;2.88;;;13.00;99.90;;;;;;5055786;28;20463;-76
2022/07/11 06:11:40;;;;;;;6.05;3.13;;;13.10;99.90;;;;;;5055958;28;20102;-75
2022/07/11 06:14:06;;;;;;;6.05;3.13;;;13.10;99.90;;;;;;5054418;28;20068;-76
2022/07/11 06:16:32;;;;;;;8.65;3.90;;;13.20;99.90;;;;;;5055579;28;20754;-76
2022/07/11 06:18:58;;;;;;;5.30;2.92;;;13.30;99.90;;;;;;5055672;28;20021;-76
2022/07/11 06:21:25;;;;;;;3.85;2.97;;;13.50;99.90;;;;;;5055779;28;20047;-76
2022/07/11 06:23:51;;;;;;;6.85;3.35;;;13.80;99.90;;;;;;5055527;28;20029;-76
2022/07/11 06:26:17;;;;;;;4.72;3.10;;;14.00;99.90;;;;;;5055746;28;20025;-75
2022/07/11 06:28:43;;;;;;;4.60;2.65;;;14.30;99.90;;;;;;5055528;28;20048;-75
2022/07/11 06:31:09;;;;;;;5.18;2.67;;;14.50;99.90;;;;;;5053902;28;20087;-75
2022/07/11 06:33:35;;;;;;;3.15;2.58;;;14.60;99.90;;;;;;5054243;28;20037;-75
2022/07/11 06:36:05;;;;;;;5.72;2.60;;;14.60;99.90;;;;;;5054100;28;20091;-76
2022/07/11 06:38:31;;;;;;;4.68;2.22;;;14.60;99.90;;;;;;5055496;28;20108;-76
2022/07/11 06:40:57;;;;;;;5.40;2.08;;;14.60;99.90;;;;;;5055222;28;20028;-76
2022/07/11 06:43:24;;;;;;;6.57;2.10;;;14.60;99.90;;;;;;5054193;28;20017;-76
2022/07/11 06:45:50;;;;;;;6.10;3.17;;;14.80;99.90;;;;;;5055399;28;20033;-76
2022/07/11 06:48:16;;;;;;;1.90;1.67;;;14.70;99.90;;;;;;5054011;28;20021;-75
2022/07/11 06:50:43;;;;;;;7.40;2.00;;;14.80;99.90;;;;;;5055028;28;20446;-75
2022/07/11 06:53:09;;;;;;;3.75;2.30;;;14.90;99.90;;;;;;5055089;28;20017;-75
2022/07/11 06:55:34;;;;;;;9.23;2.17;;;14.90;99.90;;;;;;5053749;28;20021;-75
2022/07/11 06:58:00;;;;;;;5.13;2.15;;;14.90;99.90;;;;;;5055074;28;20033;-75
2022/07/11 07:00:27;;;;;;;4.88;1.80;;;14.80;99.90;;;;;;5074175;28;20031;-75
2022/07/11 07:02:56;;;;;;;3.88;1.83;;;14.80;99.90;;;;;;5074845;28;20083;-75
2022/07/11 07:05:24;;;;;;;3.33;1.80;;;14.90;99.90;;;;;;5074897;28;20081;-76
2022/07/11 07:07:50;;;;;;;6.15;2.22;;;15.00;99.90;;;;;;5067626;28;20090;-75
2022/07/11 07:10:16;;;;;;;3.10;1.92;;;15.40;99.90;;;;;;5053424;28;20036;-75
2022/07/11 07:12:41;;;;;;;4.05;1.83;;;15.70;99.90;;;;;;5054717;28;20033;-75
2022/07/11 07:15:08;;;;;;;4.10;1.73;;;16.00;99.90;;;;;;5054506;28;20542;-75
2022/07/11 07:17:34;;;;;;;5.45;1.92;;;16.00;95.30;;;;;;5054785;28;20023;-75
2022/07/11 07:20:00;;;;;;;4.10;1.92;;;16.20;93.20;;;;;;5054567;28;20441;-75
2022/07/11 07:22:26;;;;;;;4.25;1.90;;;16.30;93.20;;;;;;5054677;28;20077;-75
2022/07/11 07:24:52;;;;;;;5.18;1.80;;;16.40;92.70;;;;;;5053050;28;20055;-75
2022/07/11 07:27:17;;;;;;;7.82;1.83;;;16.30;86.80;;;;;;5053297;28;20021;-75
2022/07/11 07:29:43;;;;;;;6.05;1.80;;;16.20;87.90;;;;;;5054572;28;20156;-71
2022/07/11 07:32:09;;;;;;;7.03;1.90;;;16.00;86.90;;;;;;5053289;28;20041;-75
2022/07/11 07:34:34;;;;;;;4.45;2.20;;;15.80;87.90;;;;;;5054481;28;20071;-75
2022/07/11 07:37:00;;;;;;;8.18;1.77;;;15.80;89.80;;;;;;5053910;28;20025;-75
2022/07/11 07:39:26;;;;;;;4.55;1.88;;;15.80;91.60;;;;;;5054607;28;20025;-71
2022/07/11 07:41:52;;;;;;;4.45;1.85;;;15.70;90.00;;;;;;5054457;28;20021;-75
2022/07/11 07:44:19;;;;;;;5.53;2.00;;;15.60;81.40;;;;;;5054441;28;20056;-71
2022/07/11 07:46:46;;;;;;;7.45;1.70;;;15.60;85.10;;;;;;5054207;28;20474;-71
2022/07/11 07:49:11;;;;;;;4.60;1.80;;;15.70;84.50;;;;;;5053017;28;20074;-75
2022/07/11 07:51:37;;;;;;;3.30;1.80;;;15.80;80.90;;;;;;5054298;28;20095;-71
2022/07/11 07:54:03;;;;;;;4.78;1.65;;;16.00;80.10;;;;;;5054054;28;20112;-71
2022/07/11 07:56:28;;;;;;;2.83;1.60;;;16.40;76.00;;;;;;5052975;28;20048;-71
2022/07/11 07:58:54;;;;;;;4.40;1.70;;;16.40;72.40;;;;;;5059673;28;20523;-71
2022/07/11 08:01:35;;;;;;;7.90;2.22;;;16.30;70.50;;;;;;5073875;28;20025;-74
2022/07/11 08:04:03;;;;;;;5.80;1.30;;;16.20;72.30;;;;;;5072630;28;20474;-75
2022/07/11 08:06:28;;;;;;;2.70;1.58;;;16.00;70.40;;;;;;5072606;28;20055;-71
2022/07/11 08:08:54;;;;;;;6.65;2.78;;;15.70;71.80;;;;;;5057297;28;20547;-74
2022/07/11 08:11:20;;;;;;;3.10;1.77;;;15.70;73.50;;;;;;5053838;28;20025;-71
2022/07/11 08:13:45;;;;;;;3.17;1.27;;;15.70;77.00;;;;;;5052483;28;20041;-75
2022/07/11 08:16:12;;;;;;;4.93;1.65;;;15.80;75.40;;;;;;5053655;28;20028;-71
2022/07/11 08:18:37;;;;;;;4.78;1.42;;;16.10;72.60;;;;;;5053521;28;20021;-71
2022/07/11 08:21:03;;;;;;;4.90;1.10;;;16.10;71.00;;;;;;5053507;28;20021;-71
2022/07/11 08:23:29;;;;;;;4.90;1.40;;;16.00;70.00;;;;;;5053682;28;20493;-72
2022/07/11 08:25:54;;;;;;;1.85;1.75;;;16.10;70.00;;;;;;5053536;28;20029;-75
2022/07/11 08:28:20;;;;;;;4.82;1.55;;;16.10;70.10;;;;;;5053600;28;20025;-71
2022/07/11 08:30:46;;;;;;;5.03;1.13;;;16.40;69.80;;;;;;5051890;28;20506;-71
2022/07/11 08:33:12;;;;;;;5.55;1.38;;;16.60;67.50;;;;;;5052143;28;20032;-74
2022/07/11 08:35:38;;;;;;;1.88;1.10;;;17.10;68.30;;;;;;5053275;28;20079;-71
2022/07/11 08:38:04;;;;;;;5.07;0.95;;;17.40;66.00;;;;;;5053380;28;20025;-72
2022/07/11 08:40:30;;;;;;;6.05;1.08;;;17.30;63.80;;;;;;5053555;28;20025;-72
2022/07/11 08:42:57;;;;;;;3.63;1.20;;;17.20;64.10;;;;;;5053280;28;20032;-72
2022/07/11 08:45:28;;;;;;;5.57;0.80;;;17.10;62.60;;;;;;5053446;28;20027;-71
2022/07/11 08:47:54;;;;;;;6.30;1.02;;;17.20;59.40;;;;;;5052481;28;20513;-74
2022/07/11 08:50:22;;;;;;;3.50;0.90;;;17.70;59.70;;;;;;5052974;28;20025;-71
2022/07/11 08:52:48;;;;;;;5.28;2.10;;;18.00;59.90;;;;;;5053202;28;20032;-74
2022/07/11 08:55:13;;;;;;;4.93;1.20;;;17.80;59.20;;;;;;5053087;28;20037;-71
2022/07/11 08:57:39;;;;;;;3.47;1.23;;;17.10;64.70;;;;;;5053142;28;20021;-75
2022/07/11 09:00:09;;;;;;;6.75;1.90;;;16.70;72.50;;;;;;5070048;28;20031;-71
2022/07/11 09:02:35;;;;;;;6.22;1.52;;;15.80;83.70;;;;;;5073179;28;20024;-72
2022/07/11 09:05:05;;;;;;;5.68;1.60;;;15.60;88.40;;;;;;5073034;28;20100;-75
2022/07/11 09:07:42;;;;;;;2.88;0.90;;;15.20;94.40;;;;;;5067650;28;20063;-71
2022/07/11 09:10:08;;;;;;;4.53;0.80;;;14.20;93.50;;;;;;5053029;28;20033;-75
2022/07/11 09:12:34;;;;;;;1.20;0.50;;;13.60;99.60;;;;;;5053027;28;20368;-75
2022/07/11 09:15:00;;;;;;;0.63;0.50;;;13.10;99.90;;;;;;5052703;28;20037;-75
2022/07/11 09:17:32;;;;;;;2.10;0.57;;;12.90;99.90;;;;;;5051635;28;20025;-75
2022/07/11 09:19:58;;;;;;;0.60;0.60;;;12.70;99.90;;;;;;5052990;28;20029;-75
2022/07/11 09:28:04;;;;;;;0.90;0.77;;;12.00;99.90;;;;;;5052896;28;20040;-74
2022/07/11 09:30:37;;;;;;;0.85;0.73;;;12.00;99.90;;;;;;5052920;28;20017;-71
2022/07/11 09:33:05;;;;;;;0.80;0.80;;;12.40;99.90;;;;;;5052403;28;20132;-72
2022/07/11 09:35:42;;;;;;;3.45;0.82;;;12.70;99.90;;;;;;5052820;28;20108;-71
2022/07/11 09:38:12;;;;;;;1.85;1.00;;;13.00;99.90;;;;;;5051616;28;20029;-72
2022/07/11 09:40:42;;;;;;;0.50;0.50;;;13.20;99.90;;;;;;5052803;28;20017;-75
2022/07/11 09:43:08;;;;;;;2.05;0.77;;;13.50;99.90;;;;;;5051393;28;20024;-72
2022/07/11 09:45:35;;;;;;;1.27;1.17;;;13.70;99.90;;;;;;5052722;28;20474;-72
2022/07/11 09:48:12;;;;;;;2.08;0.77;;;13.80;99.90;;;;;;5052578;28;20017;-72
2022/07/11 09:50:39;;;;;;;1.10;1.00;;;14.10;99.90;;;;;;5051414;28;20111;-74
2022/07/11 09:53:06;;;;;;;4.15;1.17;;;14.30;99.90;;;;;;5052608;28;20025;-74
2022/07/11 09:55:34;;;;;;;1.58;0.88;;;14.40;99.90;;;;;;5052627;28;20025;-74
2022/07/11 09:58:03;;;;;;;3.30;0.70;;;14.60;99.90;;;;;;5052445;28;20505;-75
2022/07/11 10:00:30;;;;;;;0.90;0.73;;;14.80;99.90;;;;;;5074491;28;20052;-75
2022/07/11 10:02:59;;;;;;;0.88;0.60;;;15.30;99.90;;;;;;5076133;28;20016;-71
2022/07/11 10:05:25;;;;;;;0.50;0.50;;;15.60;92.00;;;;;;5076248;28;20025;-71
2022/07/11 10:07:51;;;;;;;0.60;0.50;;;16.10;87.30;;;;;;5066205;28;20364;-74
2022/07/11 10:10:17;;;;;;;0.57;0.45;;;16.40;89.30;;;;;;5056077;28;20032;-71
2022/07/11 10:12:46;;;;;;;0.88;0.70;;;16.70;84.90;;;;;;5055867;28;20091;-71
2022/07/11 10:15:16;;;;;;;1.95;0.60;;;17.00;83.30;;;;;;5054719;28;20029;-74
2022/07/11 10:18:07;;;;;;;1.02;0.57;;;17.20;78.80;;;;;;5054822;28;20021;-71
2022/07/11 10:20:56;;;;;;;1.83;0.43;;;17.10;77.60;;;;;;5056108;28;20032;-71
2022/07/11 10:24:02;;;;;;;1.58;0.70;;;16.90;80.30;;;;;;5055961;28;20025;-74
2022/07/11 10:26:51;;;;;;;1.83;0.80;;;16.40;76.70;;;;;;5055938;28;20057;-74
2022/07/11 10:29:40;;;;;;;1.52;0.93;;;16.10;84.80;;;;;;5055949;28;20021;-74
2022/07/11 10:32:09;;;;;;;1.35;0.68;;;14.40;99.90;;;;;;5055777;28;20112;-74
2022/07/11 10:34:35;;;;;;;2.03;0.90;;;13.30;99.90;;;;;;5055586;28;20402;-74
2022/07/11 10:37:02;;;;;;;2.17;0.73;;;12.70;99.90;;;;;;5055668;28;20025;-71
2022/07/11 10:39:28;;;;;;;1.10;0.70;;;12.30;99.90;;;;;;5055604;28;20025;-71
2022/07/11 10:41:55;;;;;;;1.95;0.82;;;12.00;99.90;;;;;;5054313;28;20119;-74
2022/07/11 10:44:22;;;;;;;1.52;1.02;;;12.10;99.90;;;;;;5054203;28;20029;-74
2022/07/11 10:46:47;;;;;;;4.07;2.33;;;12.20;99.90;;;;;;5055562;28;20372;-74
2022/07/11 10:49:13;;;;;;;6.32;2.88;;;12.20;99.90;;;;;;5055316;28;20099;-71
2022/07/11 10:51:54;;;;;;;5.80;2.45;;;12.50;99.90;;;;;;5055459;28;20032;-72
2022/07/11 10:54:35;;;;;;;5.13;2.00;;;12.70;99.90;;;;;;5055316;28;20029;-71
2022/07/11 10:57:23;;;;;;;4.97;1.52;;;12.90;99.90;;;;;;5055438;28;20021;-74
2022/07/11 10:59:54;;;;;;;1.42;1.10;;;13.30;99.90;;;;;;5058147;28;20017;-74
2022/07/11 11:02:20;;;;;;;5.28;1.80;;;13.50;99.90;;;;;;5055154;28;20032;-75
2022/07/11 11:04:49;;;;;;;1.30;0.70;;;13.80;99.90;;;;;;5053753;28;20470;-75
2022/07/11 11:07:33;;;;;;;1.58;0.95;;;14.10;99.90;;;;;;5053806;28;20383;-74
2022/07/11 11:10:01;;;;;;;2.95;0.85;;;14.30;99.90;;;;;;5054620;28;20025;-72
2022/07/11 11:13:04;;;;;;;4.18;0.98;;;14.40;99.90;;;;;;5054515;28;20082;-74
2022/07/11 11:15:41;;;;;;;;;;;14.50;99.90;;;;;;5055386;28;20025;-72
2022/07/11 11:18:34;;;;;;;0.93;0.60;;;14.70;99.90;;;;;;5054764;28;19995;-74
2022/07/11 11:21:00;;;;;;;1.20;0.82;;;14.90;99.90;;;;;;5051351;28;20374;-72
2022/07/11 11:23:37;;;;;;;0.68;0.40;;;15.00;99.90;;;;;;5054737;28;20028;-72
2022/07/11 11:26:07;;;;;;;0.45;0.40;;;15.20;99.90;;;;;;5054730;28;20433;-74
2022/07/11 11:28:33;;;;;;;1.05;0.82;;;15.40;99.90;;;;;;5054766;28;20378;-74
2022/07/11 11:31:02;;;;;;;0.50;0.50;;;15.50;99.90;;;;;;5053267;28;20069;-72
2022/07/11 11:33:30;;;;;;;0.98;0.60;;;15.80;99.90;;;;;;5054501;28;20496;-74
2022/07/11 11:36:03;;;;;;;1.58;0.70;;;15.80;99.90;;;;;;5054429;28;20026;-71
2022/07/11 11:38:33;;;;;;;0.55;0.30;;;16.10;99.90;;;;;;5054597;28;20486;-72
2022/07/11 11:40:59;;;;;;;1.33;0.57;;;16.40;99.90;;;;;;5054738;28;20029;-72
2022/07/11 11:43:25;;;;;;;2.85;0.80;;;16.60;99.90;;;;;;5054515;28;20433;-74
2022/07/11 11:45:53;;;;;;;0.80;0.40;;;16.60;99.90;;;;;;5054222;28;20029;-73
2022/07/11 11:48:29;;;;;;;2.35;1.42;;;16.60;97.80;;;;;;5054288;28;20029;-71
2022/07/11 11:51:06;;;;;;;0.75;0.45;;;16.40;91.10;;;;;;5054230;28;20033;-74
2022/07/11 11:53:54;;;;;;;0.60;0.35;;;16.30;89.20;;;;;;5054194;28;20040;-74
2022/07/11 11:56:33;;;;;;;1.90;0.40;;;16.20;88.30;;;;;;5052905;28;20052;-71
2022/07/11 11:59:03;;;;;;;0.70;0.55;;;16.10;89.20;;;;;;5053944;28;20043;-72
2022/07/11 12:01:32;;;;;;;2.80;0.80;;;16.00;98.10;;;;;;5054120;28;20104;-72
2022/07/11 12:04:00;;;;;;;1.55;0.68;;;15.90;96.90;;;;;;5053938;28;20021;-71
2022/07/11 12:06:40;;;;;;;2.78;0.63;;;15.70;95.80;;;;;;5052744;28;20017;-72
2022/07/11 12:09:16;;;;;;;1.48;0.73;;;15.50;94.90;;;;;;5053772;28;20025;-74
2022/07/11 12:11:47;;;;;;;1.33;0.98;;;15.50;99.90;;;;;;5054012;28;20032;-71
2022/07/11 12:14:15;;;;;;;2.60;1.02;;;15.50;99.90;;;;;;5053721;28;20047;-71
2022/07/11 12:16:43;;;;;;;1.00;0.80;;;15.40;99.90;;;;;;5053606;28;20025;-71
2022/07/11 12:19:16;;;;;;;1.63;1.25;;;15.40;99.90;;;;;;5053558;28;20406;-72
2022/07/11 12:21:47;;;;;;;2.67;0.80;;;15.50;99.90;;;;;;5053676;28;20386;-75
2022/07/11 12:24:17;;;;;;;1.70;0.88;;;15.50;99.90;;;;;;5052349;28;20580;-74
2022/07/11 12:26:44;;;;;;;3.80;1.13;;;15.50;99.90;;;;;;5053764;28;20029;-74
2022/07/11 12:29:16;;;;;;;2.40;0.80;;;15.80;99.90;;;;;;5052290;28;20028;-73
2022/07/11 12:31:43;;;;;;;2.00;0.82;;;16.20;99.90;;;;;;5053399;28;20120;-73
2022/07/11 12:34:09;;;;;;;1.55;0.60;;;16.50;99.90;;;;;;5052175;28;20095;-74
2022/07/11 12:36:34;;;;;;;1.67;0.80;;;16.80;99.90;;;;;;5053343;28;20478;-71
2022/07/11 12:39:00;;;;;;;0.80;0.80;;;17.00;97.20;;;;;;5052113;28;20029;-71
2022/07/11 12:41:28;;;;;;;1.92;1.15;;;17.30;98.40;;;;;;5053377;28;20021;-74
2022/07/11 12:46:39;;;;;;;4.00;2.10;;;17.40;86.80;;;;;;5053900;28;20039;-71
2022/07/11 12:49:11;;;;;;;0.90;0.90;;;17.50;94.80;;;;;;5053325;28;20052;-73
2022/07/11 12:51:41;;;;;;;2.33;0.75;;;17.60;89.60;;;;;;5053267;28;20505;-71
2022/07/11 12:54:15;;;;;;;0.60;0.50;;;17.50;83.20;;;;;;5052946;28;20060;-71
2022/07/11 12:56:56;;;;;;;0.65;0.63;;;17.50;77.10;;;;;;5053165;28;20528;-74
2022/07/11 12:59:23;;;;;;;1.85;0.50;;;17.50;77.50;;;;;;5065527;28;20466;-74
2022/07/11 13:02:07;;;;;;;0.55;0.40;;;17.40;71.10;;;;;;5073002;28;20029;-73